createdAt,value
2023-04-07T00:02:00.738Z,8.27
2023-04-07T00:04:30.371Z,8.27
2023-04-07T00:06:58.379Z,8.16
2023-04-07T00:09:26.379Z,8.13
2023-04-07T00:11:54.427Z,8.20
2023-04-07T00:14:22.418Z,8.13
2023-04-07T00:16:50.371Z,8.18
2023-04-07T00:19:18.410Z,8.13
2023-04-07T00:21:47.833Z,8.12
2023-04-07T00:24:18.529Z,7.98
2023-04-07T00:26:56.862Z,8.03
2023-04-07T00:29:24.973Z,8.05
2023-04-07T00:31:53.083Z,8.00
2023-04-07T00:34:21.173Z,7.91
2023-04-07T00:36:52.260Z,7.92
2023-04-07T00:39:20.795Z,7.94
2023-04-07T00:41:49.149Z,7.93
2023-04-07T00:44:17.087Z,7.93
2023-04-07T00:46:45.728Z,7.92
2023-04-07T00:49:13.993Z,7.88
2023-04-07T00:51:44.390Z,7.79
2023-04-07T00:54:14.043Z,7.69
2023-04-07T00:56:43.741Z,7.60
2023-04-07T00:59:12.095Z,7.66
2023-04-07T01:01:47.286Z,7.66
2023-04-07T01:04:24.037Z,7.55
2023-04-07T01:06:56.171Z,7.63
2023-04-07T01:09:38.379Z,7.46
2023-04-07T01:12:14.165Z,7.43
2023-04-07T01:14:48.483Z,7.44
2023-04-07T01:17:17.559Z,7.42
2023-04-07T01:19:50.067Z,7.49
2023-04-07T01:22:22.457Z,7.46
2023-04-07T01:25:17.144Z,7.35
2023-04-07T01:27:56.501Z,7.29
2023-04-07T01:30:30.079Z,7.28
2023-04-07T01:33:01.252Z,7.28
2023-04-07T01:35:32.639Z,7.23
2023-04-07T01:38:01.649Z,7.06
2023-04-07T01:40:30.825Z,7.07
2023-04-07T01:42:59.507Z,7.14
2023-04-07T01:45:33.116Z,7.15
2023-04-07T01:48:01.686Z,7.13
2023-04-07T01:50:31.500Z,7.07
2023-04-07T01:53:00.007Z,7.04
2023-04-07T01:55:28.050Z,7.11
2023-04-07T01:57:56.361Z,7.03
2023-04-07T02:00:24.336Z,7.00
2023-04-07T02:03:00.376Z,6.95
2023-04-07T02:05:31.552Z,6.96
2023-04-07T02:08:04.300Z,6.97
2023-04-07T02:10:36.860Z,6.93
2023-04-07T02:13:09.052Z,6.94
2023-04-07T02:15:38.573Z,6.92
2023-04-07T02:18:12.845Z,6.98
2023-04-07T02:20:42.278Z,6.92
2023-04-07T02:23:10.420Z,7.00
2023-04-07T02:25:39.284Z,6.95
2023-04-07T02:28:07.331Z,6.93
2023-04-07T02:30:35.955Z,6.84
2023-04-07T02:33:03.900Z,6.75
2023-04-07T02:35:33.410Z,6.79
2023-04-07T02:38:01.480Z,6.77
2023-04-07T02:40:29.593Z,6.81
2023-04-07T02:42:57.611Z,6.74
2023-04-07T02:45:25.795Z,6.78
2023-04-07T02:47:54.214Z,6.73
2023-04-07T02:50:24.647Z,6.76
2023-04-07T02:52:54.040Z,6.72
2023-04-07T02:55:21.960Z,6.70
2023-04-07T02:57:49.897Z,6.71
2023-04-07T03:00:17.954Z,6.70
2023-04-07T03:02:46.097Z,6.65
2023-04-07T03:05:14.505Z,6.67
2023-04-07T03:07:42.462Z,6.61
2023-04-07T03:10:12.551Z,6.64
2023-04-07T03:12:40.664Z,6.72
2023-04-07T03:15:09.593Z,6.65
2023-04-07T03:17:37.573Z,6.72
2023-04-07T03:20:06.540Z,6.82
2023-04-07T03:22:34.457Z,6.87
2023-04-07T03:25:02.547Z,6.71
2023-04-07T03:27:31.867Z,6.67
2023-04-07T03:29:59.838Z,6.67
2023-04-07T03:32:27.767Z,6.69
2023-04-07T03:34:55.811Z,6.68
2023-04-07T03:37:23.814Z,6.68
2023-04-07T03:39:52.269Z,6.62
2023-04-07T03:42:20.194Z,6.60
2023-04-07T03:44:49.437Z,6.58
2023-04-07T03:47:17.837Z,6.53
2023-04-07T03:49:45.834Z,6.60
2023-04-07T03:52:13.737Z,6.70
2023-04-07T03:54:41.855Z,6.58
2023-04-07T03:57:09.832Z,6.55
2023-04-07T03:59:37.773Z,6.60
2023-04-07T04:02:07.322Z,6.67
2023-04-07T04:04:36.020Z,6.58
2023-04-07T04:07:03.950Z,6.48
2023-04-07T04:09:32.515Z,6.58
2023-04-07T04:12:00.451Z,6.54
2023-04-07T04:14:28.569Z,6.44
2023-04-07T04:16:56.516Z,6.51
2023-04-07T04:19:26.308Z,6.51
2023-04-07T04:21:54.261Z,6.46
2023-04-07T04:24:22.290Z,6.47
2023-04-07T04:26:50.165Z,6.44
2023-04-07T04:29:18.129Z,6.51
2023-04-07T04:31:46.314Z,6.55
2023-04-07T04:34:14.259Z,6.54
2023-04-07T04:36:43.976Z,6.53
2023-04-07T04:39:12.237Z,6.49
2023-04-07T04:41:40.484Z,6.40
2023-04-07T04:44:08.677Z,6.31
2023-04-07T04:46:37.157Z,6.27
2023-04-07T04:49:05.329Z,6.32
2023-04-07T04:51:33.510Z,6.40
2023-04-07T04:54:04.085Z,6.40
2023-04-07T04:56:32.294Z,6.33
2023-04-07T04:59:00.487Z,6.33
2023-04-07T05:01:29.451Z,6.31
2023-04-07T05:03:58.840Z,6.28
2023-04-07T05:06:30.125Z,6.34
2023-04-07T05:08:58.050Z,6.33
2023-04-07T05:11:27.570Z,6.34
2023-04-07T05:13:55.849Z,6.30
2023-04-07T05:16:23.805Z,6.34
2023-04-07T05:18:51.818Z,6.27
2023-04-07T05:21:22.137Z,6.31
2023-04-07T05:23:50.561Z,6.36
2023-04-07T05:26:18.740Z,6.31
2023-04-07T05:28:48.318Z,6.45
2023-04-07T05:31:16.485Z,6.52
2023-04-07T05:33:44.555Z,6.43
2023-04-07T05:36:12.679Z,6.41
2023-04-07T05:38:41.463Z,6.41
2023-04-07T05:41:09.466Z,6.47
2023-04-07T05:43:37.449Z,6.59
2023-04-07T05:46:06.912Z,6.54
2023-04-07T05:48:35.589Z,6.57
2023-04-07T05:51:03.832Z,6.57
2023-04-07T05:53:32.094Z,6.54
2023-04-07T05:56:00.469Z,6.58
2023-04-07T05:58:29.205Z,6.69
2023-04-07T06:00:57.183Z,6.90
2023-04-07T06:03:26.797Z,6.71
2023-04-07T06:05:55.246Z,6.87
2023-04-07T06:08:23.248Z,6.94
2023-04-07T06:10:51.660Z,6.99
2023-04-07T06:13:21.180Z,6.83
2023-04-07T06:15:49.738Z,6.96
2023-04-07T06:18:17.646Z,6.96
2023-04-07T06:20:47.401Z,6.94
2023-04-07T06:23:16.119Z,6.85
2023-04-07T06:25:46.103Z,6.87
2023-04-07T06:28:14.669Z,6.95
2023-04-07T06:30:43.489Z,7.12
2023-04-07T06:33:11.621Z,7.22
2023-04-07T06:35:41.565Z,7.35
2023-04-07T06:38:11.566Z,7.40
2023-04-07T06:40:39.823Z,7.44
2023-04-07T06:43:07.927Z,7.49
2023-04-07T06:45:35.918Z,7.54
2023-04-07T06:48:07.396Z,7.54
2023-04-07T06:50:35.684Z,7.68
2023-04-07T06:53:03.896Z,7.74
2023-04-07T06:55:34.425Z,7.98
2023-04-07T06:58:02.406Z,8.02
2023-04-07T07:00:31.343Z,7.97
2023-04-07T07:03:00.162Z,7.99
2023-04-07T07:05:31.643Z,8.17
2023-04-07T07:08:00.310Z,8.26
2023-04-07T07:10:28.432Z,8.44
2023-04-07T07:13:01.042Z,8.52
2023-04-07T07:15:29.236Z,8.53
2023-04-07T07:17:57.859Z,8.77
2023-04-07T07:20:26.572Z,9.09
2023-04-07T07:22:54.835Z,10.77
2023-04-07T07:25:22.978Z,12.56
2023-04-07T07:27:53.549Z,13.68
2023-04-07T07:30:25.662Z,14.81
2023-04-07T07:32:55.104Z,15.91
2023-04-07T07:35:25.368Z,16.97
2023-04-07T07:37:57.103Z,17.46
2023-04-07T07:40:28.382Z,17.86
2023-04-07T07:42:56.685Z,18.67
2023-04-07T07:45:26.133Z,18.63
2023-04-07T07:47:54.186Z,19.30
2023-04-07T07:50:24.872Z,18.74
2023-04-07T07:52:53.346Z,18.37
2023-04-07T07:55:21.786Z,19.23
2023-04-07T07:57:50.363Z,19.30
2023-04-07T08:00:20.088Z,19.60
2023-04-07T08:02:49.736Z,19.22
2023-04-07T08:05:21.098Z,19.16
2023-04-07T08:07:49.833Z,20.46
2023-04-07T08:10:21.793Z,20.58
2023-04-07T08:12:50.245Z,20.45
2023-04-07T08:15:18.707Z,20.28
2023-04-07T08:17:47.184Z,20.12
2023-04-07T08:20:16.926Z,20.47
2023-04-07T08:22:45.413Z,20.41
2023-04-07T08:25:13.586Z,19.84
2023-04-07T08:27:41.780Z,20.24
2023-04-07T08:30:10.679Z,20.03
2023-04-07T08:32:39.500Z,20.49
2023-04-07T08:35:08.273Z,21.11
2023-04-07T08:37:38.870Z,19.93
2023-04-07T08:40:07.912Z,19.67
2023-04-07T08:42:38.529Z,19.30
2023-04-07T08:45:10.030Z,19.44
2023-04-07T08:47:39.123Z,19.45
2023-04-07T08:50:09.867Z,19.95
2023-04-07T08:52:45.768Z,20.07
2023-04-07T08:55:14.159Z,20.81
2023-04-07T08:57:46.299Z,20.61
2023-04-07T09:00:18.785Z,19.91
2023-04-07T09:02:49.162Z,19.79
2023-04-07T09:05:17.526Z,20.34
2023-04-07T09:07:47.677Z,20.49
2023-04-07T09:10:16.137Z,21.13
2023-04-07T09:12:44.498Z,21.23
2023-04-07T09:15:12.631Z,21.90
2023-04-07T09:17:47.177Z,21.45
2023-04-07T09:20:16.183Z,20.39
2023-04-07T09:22:46.780Z,20.12
2023-04-07T09:25:17.501Z,20.33
2023-04-07T09:27:59.571Z,20.52
2023-04-07T09:30:28.868Z,20.34
2023-04-07T09:32:57.694Z,19.13
2023-04-07T09:35:28.601Z,18.94
2023-04-07T09:38:07.896Z,18.40
2023-04-07T09:40:36.831Z,18.24
2023-04-07T09:43:06.841Z,18.14
2023-04-07T09:45:37.029Z,16.52
2023-04-07T09:48:09.166Z,15.69
2023-04-07T09:50:41.439Z,15.71
2023-04-07T09:53:11.718Z,15.67
2023-04-07T09:55:41.669Z,15.44
2023-04-07T09:58:13.225Z,15.60
2023-04-07T10:00:42.941Z,15.68
2023-04-07T10:03:11.375Z,14.79
2023-04-07T10:05:40.537Z,14.50
2023-04-07T10:08:08.508Z,14.84
2023-04-07T10:10:41.290Z,14.27
2023-04-07T10:13:09.274Z,14.36
2023-04-07T10:15:38.030Z,14.08
2023-04-07T10:18:09.220Z,13.86
2023-04-07T10:20:41.577Z,14.06
2023-04-07T10:23:17.807Z,14.11
2023-04-07T10:25:48.931Z,14.20
2023-04-07T10:28:18.636Z,14.47
2023-04-07T10:30:49.084Z,14.72
2023-04-07T10:33:18.755Z,14.44
2023-04-07T10:36:06.210Z,14.18
2023-04-07T10:38:34.390Z,14.52
2023-04-07T10:41:41.506Z,14.82
2023-04-07T10:44:11.047Z,14.40
2023-04-07T10:47:06.609Z,14.64
2023-04-07T10:49:35.346Z,14.15
2023-04-07T10:52:24.920Z,14.05
2023-04-07T10:55:37.757Z,14.43
2023-04-07T10:58:24.018Z,14.45
2023-04-07T11:01:34.791Z,14.32
2023-04-07T11:04:07.331Z,14.25
2023-04-07T11:06:36.078Z,14.17
2023-04-07T11:09:07.356Z,13.91
2023-04-07T11:11:43.183Z,14.18
2023-04-07T11:14:12.523Z,14.24
2023-04-07T11:16:42.893Z,14.28
2023-04-07T11:19:11.451Z,14.20
2023-04-07T11:21:39.408Z,14.04
2023-04-07T11:24:07.691Z,14.00
2023-04-07T11:26:40.538Z,13.68
2023-04-07T11:29:09.261Z,13.73
2023-04-07T11:31:40.021Z,13.93
2023-04-07T11:34:09.116Z,13.87
2023-04-07T11:36:44.315Z,13.79
2023-04-07T11:39:22.966Z,13.60
2023-04-07T11:41:52.058Z,13.49
2023-04-07T11:44:20.543Z,13.57
2023-04-07T11:46:57.225Z,13.59
2023-04-07T11:49:26.287Z,13.63
2023-04-07T11:52:03.199Z,13.59
2023-04-07T11:54:41.797Z,13.42
2023-04-07T11:57:12.750Z,13.29
2023-04-07T11:59:42.196Z,13.57
2023-04-07T12:02:11.897Z,13.65
2023-04-07T12:04:41.263Z,13.55
2023-04-07T12:07:10.767Z,13.20
2023-04-07T12:09:39.212Z,13.21
2023-04-07T12:12:10.279Z,13.11
2023-04-07T12:14:38.663Z,13.27
2023-04-07T12:17:08.170Z,13.19
2023-04-07T12:19:41.309Z,13.14
2023-04-07T12:22:09.332Z,12.98
2023-04-07T12:24:37.536Z,13.19
2023-04-07T12:27:05.497Z,13.13
2023-04-07T12:29:33.914Z,13.15
2023-04-07T12:32:03.702Z,13.28
2023-04-07T12:34:31.734Z,13.28
2023-04-07T12:37:01.308Z,13.32
2023-04-07T12:39:29.310Z,13.29
2023-04-07T12:41:58.317Z,13.35
2023-04-07T12:44:26.471Z,13.25
2023-04-07T12:46:54.510Z,13.27
2023-04-07T12:49:22.511Z,13.27
2023-04-07T12:51:50.742Z,13.25
2023-04-07T12:54:20.087Z,13.18
2023-04-07T12:56:48.039Z,13.02
2023-04-07T12:59:16.126Z,13.15
2023-04-07T13:01:44.162Z,13.18
2023-04-07T13:04:12.522Z,13.26
2023-04-07T13:06:40.511Z,13.32
2023-04-07T13:09:08.448Z,13.46
2023-04-07T13:11:40.833Z,13.73
2023-04-07T13:14:08.791Z,13.67
2023-04-07T13:16:39.438Z,13.62
2023-04-07T13:19:09.473Z,13.83
2023-04-07T13:24:08.536Z,13.80
2023-04-07T13:26:37.296Z,14.24
2023-04-07T13:29:06.553Z,14.17
2023-04-07T13:31:38.339Z,14.15
2023-04-07T13:34:06.242Z,14.12
2023-04-07T13:36:35.301Z,13.54
2023-04-07T13:39:03.491Z,13.55
2023-04-07T13:41:31.747Z,13.59
2023-04-07T13:43:59.954Z,13.76
2023-04-07T13:46:30.383Z,13.58
2023-04-07T13:48:58.750Z,13.71
2023-04-07T13:51:28.092Z,13.66
2023-04-07T13:53:58.759Z,13.67
2023-04-07T13:56:26.805Z,14.08
2023-04-07T13:58:54.663Z,14.06
2023-04-07T14:01:22.814Z,13.90
2023-04-07T14:03:52.932Z,13.41
2023-04-07T14:06:22.964Z,13.87
2023-04-07T14:08:51.515Z,13.85
2023-04-07T14:11:19.822Z,13.81
2023-04-07T14:13:48.068Z,13.82
2023-04-07T14:16:16.787Z,14.02
2023-04-07T14:18:44.742Z,14.36
2023-04-07T14:21:14.293Z,14.38
2023-04-07T14:23:42.329Z,14.30
2023-04-07T14:26:11.390Z,14.29
2023-04-07T14:28:39.405Z,14.53
2023-04-07T14:31:07.641Z,14.43
2023-04-07T14:33:39.291Z,14.01
2023-04-07T14:36:07.501Z,13.97
2023-04-07T14:38:37.289Z,13.87
2023-04-07T14:41:09.955Z,13.83
2023-04-07T14:43:38.370Z,13.71
2023-04-07T14:46:06.970Z,13.41
2023-04-07T14:48:37.734Z,12.99
2023-04-07T14:51:13.419Z,12.70
2023-04-07T14:53:43.470Z,12.69
2023-04-07T14:56:11.431Z,12.36
2023-04-07T14:58:40.876Z,12.19
2023-04-07T15:01:09.084Z,12.18
2023-04-07T15:03:37.746Z,11.98
2023-04-07T15:06:08.741Z,12.00
2023-04-07T15:08:40.006Z,12.22
2023-04-07T15:11:10.230Z,12.27
2023-04-07T15:13:38.353Z,12.10
2023-04-07T15:16:10.884Z,12.23
2023-04-07T15:18:40.905Z,12.02
2023-04-07T15:21:09.457Z,11.75
2023-04-07T15:23:38.929Z,11.64
2023-04-07T15:26:07.492Z,11.62
2023-04-07T15:28:37.088Z,11.53
2023-04-07T15:31:08.698Z,11.49
2023-04-07T15:33:37.918Z,11.46
2023-04-07T15:36:06.387Z,11.33
2023-04-07T15:38:35.584Z,11.41
2023-04-07T15:41:03.580Z,11.44
2023-04-07T15:43:31.457Z,11.31
2023-04-07T15:46:01.147Z,11.18
2023-04-07T15:48:29.076Z,11.18
2023-04-07T15:50:56.999Z,11.29
2023-04-07T15:53:25.207Z,11.25
2023-04-07T15:55:53.262Z,11.20
2023-04-07T15:58:21.495Z,11.23
2023-04-07T16:00:49.708Z,11.10
2023-04-07T16:03:19.341Z,11.02
2023-04-07T16:05:47.552Z,10.85
2023-04-07T16:08:18.117Z,10.70
2023-04-07T16:10:46.535Z,10.66
2023-04-07T16:13:15.530Z,10.63
2023-04-07T16:15:43.521Z,10.52
2023-04-07T16:18:13.125Z,10.52
2023-04-07T16:20:42.468Z,10.78
2023-04-07T16:23:11.215Z,10.69
2023-04-07T16:25:39.134Z,10.61
2023-04-07T16:28:07.218Z,10.49
2023-04-07T16:30:38.048Z,10.34
2023-04-07T16:33:06.103Z,10.41
2023-04-07T16:35:34.913Z,10.23
2023-04-07T16:38:06.369Z,10.21
2023-04-07T16:40:37.176Z,10.12
2023-04-07T16:43:05.068Z,9.96
2023-04-07T16:45:33.422Z,9.89
2023-04-07T16:48:02.948Z,10.09
2023-04-07T16:50:30.951Z,10.14
2023-04-07T16:52:58.942Z,10.25
2023-04-07T16:55:28.282Z,10.05
2023-04-07T16:57:56.255Z,10.00
2023-04-07T17:00:24.291Z,9.95
2023-04-07T17:02:53.758Z,9.82
2023-04-07T17:05:21.839Z,9.70
2023-04-07T17:07:50.150Z,9.52
2023-04-07T17:10:18.207Z,9.50
2023-04-07T17:12:52.153Z,9.51
2023-04-07T17:15:21.543Z,9.50
2023-04-07T17:17:49.551Z,9.59
2023-04-07T17:20:22.023Z,9.61
2023-04-07T17:22:53.033Z,9.52
2023-04-07T17:25:23.810Z,9.35
2023-04-07T17:27:55.105Z,9.40
2023-04-07T17:30:23.383Z,9.29
2023-04-07T17:32:52.548Z,9.34
2023-04-07T17:35:20.837Z,9.29
2023-04-07T17:37:48.972Z,9.34
2023-04-07T17:40:16.970Z,9.33
2023-04-07T17:42:45.906Z,9.11
2023-04-07T17:45:16.188Z,9.16
2023-04-07T17:47:46.415Z,9.29
2023-04-07T17:50:14.634Z,9.02
2023-04-07T17:52:42.992Z,9.09
2023-04-07T17:55:12.403Z,9.15
2023-04-07T17:57:41.606Z,9.13
2023-04-07T18:00:10.455Z,8.99
2023-04-07T18:02:40.380Z,9.14
2023-04-07T18:05:09.104Z,8.98
2023-04-07T18:07:37.542Z,8.69
2023-04-07T18:10:06.231Z,8.70
2023-04-07T18:12:35.241Z,8.64
2023-04-07T18:15:04.643Z,8.57
2023-04-07T18:17:32.585Z,8.74
2023-04-07T18:20:02.211Z,8.80
2023-04-07T18:22:30.274Z,8.90
2023-04-07T18:25:00.268Z,8.80
2023-04-07T18:27:28.433Z,8.99
2023-04-07T18:29:56.774Z,8.92
2023-04-07T18:32:24.717Z,8.93
2023-04-07T18:34:53.723Z,8.87
2023-04-07T18:37:23.451Z,8.74
2023-04-07T18:39:52.232Z,8.77
2023-04-07T18:42:20.341Z,8.66
2023-04-07T18:44:48.419Z,8.73
2023-04-07T18:47:16.496Z,8.88
2023-04-07T18:49:44.334Z,8.77
2023-04-07T18:52:12.257Z,8.62
2023-04-07T18:54:44.435Z,8.66
2023-04-07T18:57:12.812Z,8.75
2023-04-07T18:59:40.833Z,8.65
2023-04-07T19:02:09.094Z,8.70
2023-04-07T19:04:37.221Z,8.79
2023-04-07T19:07:05.323Z,8.89
2023-04-07T19:09:34.404Z,8.90
2023-04-07T19:12:03.872Z,8.82
2023-04-07T19:14:32.109Z,8.85
2023-04-07T19:17:00.444Z,8.95
2023-04-07T19:19:29.203Z,8.83
2023-04-07T19:22:00.366Z,8.50
2023-04-07T19:24:28.485Z,8.55
2023-04-07T19:26:57.157Z,8.50
2023-04-07T19:29:26.997Z,8.66
2023-04-07T19:31:57.342Z,8.78
2023-04-07T19:34:25.871Z,8.67
2023-04-07T19:36:54.328Z,8.62
2023-04-07T19:39:22.292Z,8.68
2023-04-07T19:41:50.414Z,8.48
2023-04-07T19:44:18.826Z,8.50
2023-04-07T19:46:48.726Z,8.59
2023-04-07T19:49:16.733Z,8.49
2023-04-07T19:51:44.649Z,8.44
2023-04-07T19:54:12.613Z,8.45
2023-04-07T19:56:41.201Z,8.53
2023-04-07T19:59:09.318Z,8.61
2023-04-07T20:01:37.393Z,8.44
2023-04-07T20:04:06.838Z,8.36
2023-04-07T20:06:36.621Z,8.22
2023-04-07T20:09:05.018Z,8.33
2023-04-07T20:11:33.079Z,8.52
2023-04-07T20:14:01.582Z,8.61
2023-04-07T20:16:34.438Z,8.61
2023-04-07T20:19:03.628Z,8.50
2023-04-07T20:21:35.825Z,8.62
2023-04-07T20:24:04.631Z,8.64
2023-04-07T20:26:32.508Z,8.64
2023-04-07T20:29:00.445Z,8.84
2023-04-07T20:31:28.433Z,8.73
2023-04-07T20:33:56.729Z,8.73
2023-04-07T20:36:24.752Z,8.58
2023-04-07T20:38:55.735Z,8.52
2023-04-07T20:41:23.989Z,8.63
2023-04-07T20:43:52.815Z,8.74
2023-04-07T20:46:21.135Z,8.57
2023-04-07T20:48:49.589Z,8.76
2023-04-07T20:51:17.828Z,8.60
2023-04-07T20:53:47.166Z,8.50
2023-04-07T20:56:16.656Z,8.49
2023-04-07T20:58:44.680Z,8.65
2023-04-07T21:01:12.747Z,8.67
2023-04-07T21:03:40.719Z,8.71
2023-04-07T21:06:08.857Z,8.75
2023-04-07T21:08:36.951Z,8.49
2023-04-07T21:11:05.138Z,8.46
2023-04-07T21:13:35.754Z,8.45
2023-04-07T21:16:05.864Z,8.47
2023-04-07T21:18:47.053Z,8.43
2023-04-07T21:21:15.437Z,8.64
2023-04-07T21:23:46.522Z,8.76
2023-04-07T21:26:14.906Z,8.76
2023-04-07T21:29:13.432Z,8.83
2023-04-07T21:31:44.847Z,8.71
2023-04-07T21:34:12.897Z,8.69
2023-04-07T21:36:41.641Z,8.81
2023-04-07T21:39:09.863Z,8.82
2023-04-07T21:41:40.051Z,8.80
2023-04-07T21:44:13.052Z,8.71
2023-04-07T21:46:41.158Z,8.74
2023-04-07T21:49:09.169Z,8.60
2023-04-07T21:51:45.393Z,8.55
2023-04-07T21:54:14.010Z,8.64
2023-04-07T21:57:01.389Z,8.74
2023-04-07T21:59:35.596Z,8.65
2023-04-07T22:02:05.517Z,8.61
2023-04-07T22:04:47.266Z,8.78
2023-04-07T22:07:15.374Z,8.91
2023-04-07T22:09:43.346Z,8.98
2023-04-07T22:12:11.420Z,8.97
2023-04-07T22:14:41.166Z,8.98
2023-04-07T22:17:09.371Z,8.93
2023-04-07T22:19:40.007Z,8.70
2023-04-07T22:22:08.621Z,8.80
2023-04-07T22:24:36.915Z,8.80
2023-04-07T22:27:07.122Z,8.93
2023-04-07T22:29:35.118Z,8.85
2023-04-07T22:32:04.527Z,8.87
2023-04-07T22:34:32.453Z,8.71
2023-04-07T22:37:00.622Z,8.80
2023-04-07T22:39:28.778Z,8.87
2023-04-07T22:41:56.646Z,8.90
2023-04-07T22:44:24.797Z,8.78
2023-04-07T22:46:52.775Z,8.80
2023-04-07T22:49:22.389Z,8.86
2023-04-07T22:51:51.113Z,8.96
2023-04-07T22:54:19.461Z,8.70
2023-04-07T22:56:47.515Z,8.63
2023-04-07T22:59:15.666Z,8.53
2023-04-07T23:01:43.800Z,8.82
2023-04-07T23:04:12.075Z,8.86
2023-04-07T23:06:43.754Z,8.80
2023-04-07T23:09:11.795Z,8.70
2023-04-07T23:11:39.808Z,8.77
2023-04-07T23:14:08.013Z,8.87
2023-04-07T23:16:36.326Z,9.04
2023-04-07T23:19:04.470Z,9.02
2023-04-07T23:21:32.424Z,9.02
2023-04-07T23:24:01.719Z,8.82
2023-04-07T23:26:29.883Z,8.79
2023-04-07T23:28:57.841Z,8.91
2023-04-07T23:31:26.144Z,8.91
2023-04-07T23:33:54.251Z,8.95
2023-04-07T23:36:22.340Z,8.97
2023-04-07T23:38:50.559Z,8.82
2023-04-07T23:41:20.022Z,9.05
2023-04-07T23:43:48.192Z,9.04
2023-04-07T23:46:16.146Z,8.79
2023-04-07T23:48:44.105Z,8.85
2023-04-07T23:51:12.884Z,8.84
2023-04-07T23:53:40.719Z,8.92
2023-04-07T23:56:09.038Z,8.86
2023-04-07T23:58:38.378Z,8.91
